createdAt,value
2017-01-18T00:00:58.457Z,97.28
2017-01-18T00:02:09.248Z,97.96
2017-01-18T00:03:20.048Z,97.96
2017-01-18T00:04:30.851Z,97.77
2017-01-18T00:05:41.653Z,97.86
2017-01-18T00:06:52.799Z,97.77
2017-01-18T00:08:03.596Z,97.77
2017-01-18T00:09:14.385Z,98.35
2017-01-18T00:10:25.182Z,97.86
2017-01-18T00:11:35.978Z,98.25
2017-01-18T00:12:46.772Z,97.62
2017-01-18T00:13:57.573Z,98.44
2017-01-18T00:15:08.393Z,98.39
2017-01-18T00:16:19.196Z,98.25
2017-01-18T00:17:30.003Z,99.26
2017-01-18T00:18:40.800Z,98.1
2017-01-18T00:19:51.626Z,98.05
2017-01-18T00:21:02.417Z,98.3
2017-01-18T00:22:13.212Z,99.02
2017-01-18T00:23:24.006Z,98.68
2017-01-18T00:24:35.048Z,98.78
2017-01-18T00:25:45.851Z,98.73
2017-01-18T00:26:56.647Z,98.83
2017-01-18T00:28:07.449Z,98.25
2017-01-18T00:29:18.275Z,98.25
2017-01-18T00:30:29.066Z,97.86
2017-01-18T00:31:39.862Z,98.05
2017-01-18T00:32:50.658Z,98.05
2017-01-18T00:34:01.449Z,98.25
2017-01-18T00:35:12.239Z,98.25
2017-01-18T00:36:23.025Z,97.86
2017-01-18T00:37:33.812Z,98.54
2017-01-18T00:38:44.605Z,98.25
2017-01-18T00:39:55.388Z,98.25
2017-01-18T00:41:06.178Z,98.73
2017-01-18T00:45:07.494Z,97.47
2017-01-18T00:46:18.280Z,97.86
2017-01-18T00:47:29.070Z,96.7
2017-01-18T00:48:39.859Z,97.28
2017-01-18T00:49:50.651Z,97.28
2017-01-18T00:51:01.440Z,97.47
2017-01-18T00:52:12.229Z,97.28
2017-01-18T00:53:23.015Z,96.61
2017-01-18T00:54:33.812Z,97.28
2017-01-18T00:55:44.601Z,96.7
2017-01-18T00:56:55.397Z,96.12
2017-01-18T00:58:06.792Z,97.09
2017-01-18T00:59:17.802Z,96.61
2017-01-18T01:00:28.586Z,96.51
2017-01-18T01:01:39.371Z,97.28
2017-01-18T01:02:50.159Z,97.47
2017-01-18T01:04:15.723Z,97.28
2017-01-18T01:05:26.507Z,97.28
2017-01-18T01:06:37.297Z,97.77
2017-01-18T01:07:48.082Z,97.96
2017-01-18T01:08:58.869Z,98.05
2017-01-18T01:10:10.009Z,98.3
2017-01-18T01:11:20.812Z,97.77
2017-01-18T01:12:31.632Z,97.86
2017-01-18T01:13:56.897Z,98.49
2017-01-18T01:15:07.695Z,98.49
2017-01-18T01:16:19.296Z,98.68
2017-01-18T01:17:30.105Z,98.78
2017-01-18T01:18:40.915Z,98.97
2017-01-18T01:19:51.748Z,99.02
2017-01-18T01:21:02.551Z,98.97
2017-01-18T01:22:13.360Z,99.45
2017-01-18T01:23:24.165Z,99.98
2017-01-18T01:24:49.442Z,99.99
2017-01-18T01:27:25.781Z,99.99
2017-01-18T01:28:36.588Z,99.99
2017-01-18T01:29:47.398Z,99.99
2017-01-18T01:30:58.217Z,99.99
2017-01-18T01:32:09.404Z,99.99
2017-01-18T01:33:20.213Z,99.99
2017-01-18T01:34:31.023Z,99.99
2017-01-18T01:35:41.835Z,99.99
2017-01-18T01:36:53.251Z,99.99
2017-01-18T01:38:04.057Z,99.99
2017-01-18T01:39:14.866Z,99.99
2017-01-18T01:40:25.676Z,99.99
2017-01-18T01:41:36.486Z,99.99
2017-01-18T01:42:47.295Z,99.99
2017-01-18T01:43:58.309Z,99.99
2017-01-18T01:45:09.118Z,99.99
2017-01-18T01:46:19.928Z,99.99
2017-01-18T01:47:30.757Z,99.99
2017-01-18T01:48:41.572Z,99.99
2017-01-18T01:49:52.696Z,99.99
2017-01-18T01:51:03.554Z,99.99
2017-01-18T01:52:14.382Z,99.99
2017-01-18T01:53:25.190Z,99.99
2017-01-18T01:54:35.996Z,99.99
2017-01-18T01:55:46.809Z,99.99
2017-01-18T01:56:57.621Z,99.99
2017-01-18T01:58:08.431Z,99.99
2017-01-18T01:59:33.715Z,99.99
2017-01-18T02:00:58.993Z,99.99
2017-01-18T02:02:09.806Z,99.99
2017-01-18T02:03:20.621Z,99.99
2017-01-18T02:04:31.432Z,99.99
2017-01-18T02:05:56.707Z,99.99
2017-01-18T02:07:07.876Z,99.99
2017-01-18T02:08:18.682Z,99.99
2017-01-18T02:09:29.480Z,99.99
2017-01-18T02:10:40.289Z,99.99
2017-01-18T02:11:51.099Z,99.99
2017-01-18T02:13:01.909Z,99.99
2017-01-18T02:14:12.726Z,99.99
2017-01-18T02:15:23.532Z,99.99
2017-01-18T02:16:34.344Z,99.99
2017-01-18T02:17:45.397Z,99.99
2017-01-18T02:18:56.189Z,99.99
2017-01-18T02:20:07.589Z,99.99
2017-01-18T02:21:32.873Z,99.99
2017-01-18T02:22:43.873Z,99.99
2017-01-18T02:23:54.679Z,99.99
2017-01-18T02:25:05.527Z,99.99
2017-01-18T02:26:16.329Z,99.99
2017-01-18T02:27:27.121Z,99.99
2017-01-18T02:28:38.272Z,99.99
2017-01-18T02:29:49.084Z,99.99
2017-01-18T02:32:25.165Z,99.99
2017-01-18T02:33:50.463Z,99.99
2017-01-18T02:35:01.251Z,99.99
2017-01-18T02:36:12.046Z,99.99
2017-01-18T02:37:23.471Z,99.99
2017-01-18T02:38:34.260Z,99.99
2017-01-18T02:39:45.410Z,99.99
2017-01-18T02:40:56.204Z,99.99
2017-01-18T02:42:06.994Z,99.99
2017-01-18T02:43:17.803Z,99.99
2017-01-18T02:44:43.068Z,99.99
2017-01-18T02:45:54.065Z,99.99
2017-01-18T02:47:04.860Z,99.99
2017-01-18T02:48:15.655Z,99.99
2017-01-18T02:49:26.444Z,99.99
2017-01-18T02:50:37.592Z,99.99
2017-01-18T02:51:48.382Z,99.99
2017-01-18T02:52:59.179Z,99.99
2017-01-18T02:54:09.981Z,99.99
2017-01-18T02:55:20.771Z,99.99
2017-01-18T02:56:31.565Z,99.99
2017-01-18T02:57:42.395Z,99.99
2017-01-18T02:58:53.198Z,99.99
2017-01-18T03:00:03.994Z,99.99
2017-01-18T03:01:14.806Z,99.99
2017-01-18T03:02:25.606Z,99.99
2017-01-18T03:03:36.407Z,99.99
2017-01-18T03:04:47.209Z,99.99
2017-01-18T03:05:58.000Z,99.99
2017-01-18T03:07:08.804Z,99.99
2017-01-18T03:08:19.609Z,99.99
2017-01-18T03:09:30.405Z,99.99
2017-01-18T03:10:41.203Z,99.99
2017-01-18T03:11:51.998Z,99.99
2017-01-18T03:13:02.798Z,99.99
2017-01-18T03:14:13.599Z,99.99
2017-01-18T03:15:24.395Z,99.99
2017-01-18T03:16:35.204Z,99.99
2017-01-18T03:17:46.000Z,99.99
2017-01-18T03:18:56.809Z,99.99
2017-01-18T03:20:07.607Z,99.99
2017-01-18T03:21:18.406Z,99.99
2017-01-18T03:22:29.203Z,99.99
2017-01-18T03:23:39.998Z,99.99
2017-01-18T03:24:50.795Z,99.99
2017-01-18T03:26:01.950Z,99.99
2017-01-18T03:27:13.353Z,99.99
2017-01-18T03:28:24.151Z,99.99
2017-01-18T03:29:34.963Z,99.99
2017-01-18T03:30:45.768Z,99.99
2017-01-18T03:31:56.765Z,99.99
2017-01-18T03:33:07.564Z,99.99
2017-01-18T03:34:18.363Z,99.99
2017-01-18T03:35:29.171Z,99.99
2017-01-18T03:36:39.976Z,99.99
2017-01-18T03:37:50.759Z,99.99
2017-01-18T03:39:01.545Z,99.99
2017-01-18T03:40:12.332Z,99.99
2017-01-18T03:41:23.137Z,99.99
2017-01-18T03:42:33.939Z,99.99
2017-01-18T03:43:44.989Z,99.99
2017-01-18T03:44:55.790Z,99.99
2017-01-18T03:46:06.599Z,99.99
2017-01-18T03:47:17.406Z,99.99
2017-01-18T03:48:28.215Z,99.99
2017-01-18T03:49:39.221Z,99.99
2017-01-18T03:50:50.053Z,99.99
2017-01-18T03:52:02.057Z,99.99
2017-01-18T03:53:12.842Z,99.99
2017-01-18T03:54:23.633Z,99.99
2017-01-18T03:55:34.779Z,99.99
2017-01-18T03:56:45.571Z,99.99
2017-01-18T03:57:56.375Z,99.99
2017-01-18T03:59:07.173Z,99.99
2017-01-18T04:00:17.965Z,99.99
2017-01-18T04:01:28.757Z,99.99
2017-01-18T04:02:39.551Z,99.99
2017-01-18T04:03:50.403Z,99.99
2017-01-18T04:05:01.204Z,99.99
2017-01-18T04:06:11.999Z,99.99
2017-01-18T04:07:23.050Z,99.99
2017-01-18T04:08:34.454Z,99.99
2017-01-18T04:09:45.244Z,99.99
2017-01-18T04:10:56.035Z,99.99
2017-01-18T04:12:06.833Z,99.99
2017-01-18T04:13:17.876Z,99.99
2017-01-18T04:14:28.665Z,99.99
2017-01-18T04:15:39.457Z,99.99
2017-01-18T04:16:50.284Z,99.99
2017-01-18T04:18:01.084Z,99.99
2017-01-18T04:19:12.227Z,99.99
2017-01-18T04:20:23.023Z,99.99
2017-01-18T04:21:33.812Z,99.99
2017-01-18T04:22:44.603Z,99.99
2017-01-18T04:23:55.390Z,99.99
2017-01-18T04:25:06.238Z,99.99
2017-01-18T04:26:17.036Z,99.99
2017-01-18T04:27:27.862Z,99.99
2017-01-18T04:28:38.659Z,99.99
2017-01-18T04:29:49.449Z,99.99
2017-01-18T04:31:00.235Z,99.99
2017-01-18T04:32:11.027Z,99.99
2017-01-18T04:33:21.812Z,99.99
2017-01-18T04:34:32.607Z,99.99
2017-01-18T04:35:43.400Z,99.99
2017-01-18T04:36:54.446Z,99.99
2017-01-18T04:38:05.253Z,99.99
2017-01-18T04:39:16.063Z,99.99
2017-01-18T04:40:26.883Z,99.99
2017-01-18T04:41:37.689Z,99.99
2017-01-18T04:42:48.797Z,99.99
2017-01-18T04:43:59.602Z,99.99
2017-01-18T04:46:35.691Z,99.99
2017-01-18T04:47:46.827Z,99.99
2017-01-18T04:48:57.680Z,99.99
2017-01-18T04:50:09.106Z,99.99
2017-01-18T04:51:19.916Z,99.99
2017-01-18T04:52:30.721Z,99.99
2017-01-18T04:53:41.528Z,99.99
2017-01-18T04:54:52.334Z,99.99
2017-01-18T04:56:03.147Z,99.99
2017-01-18T04:57:13.951Z,99.99
2017-01-18T04:58:24.757Z,99.99
2017-01-18T04:59:35.814Z,99.99
2017-01-18T05:00:46.624Z,99.99
2017-01-18T05:01:57.439Z,99.99
2017-01-18T05:03:08.251Z,99.99
2017-01-18T05:04:19.066Z,99.99
2017-01-18T05:05:30.224Z,99.99
2017-01-18T05:06:41.049Z,99.99
2017-01-18T05:07:51.959Z,99.99
2017-01-18T05:09:04.715Z,99.99
2017-01-18T05:10:16.029Z,99.99
2017-01-18T05:11:28.875Z,99.99
2017-01-18T05:12:42.700Z,99.99
2017-01-18T05:13:53.820Z,99.99
2017-01-18T05:15:08.051Z,99.99
2017-01-18T05:16:22.312Z,99.99
2017-01-18T05:17:36.323Z,99.99
2017-01-18T05:18:51.609Z,99.99
2017-01-18T05:20:04.194Z,99.99
2017-01-18T05:21:16.432Z,99.99
2017-01-18T05:23:59.323Z,99.99
2017-01-18T05:25:12.758Z,99.99
2017-01-18T05:26:40.145Z,99.99
2017-01-18T05:27:52.936Z,99.99
2017-01-18T05:29:21.611Z,99.99
2017-01-18T05:30:32.723Z,99.99
2017-01-18T05:31:46.546Z,99.99
2017-01-18T05:32:59.727Z,99.99
2017-01-18T05:34:12.340Z,99.99
2017-01-18T05:35:25.317Z,99.99
2017-01-18T05:36:38.093Z,99.99
2017-01-18T05:37:49.908Z,99.99
2017-01-18T05:39:00.717Z,99.99
2017-01-18T05:40:12.133Z,99.99
2017-01-18T05:41:22.936Z,99.99
2017-01-18T05:42:33.747Z,99.99
2017-01-18T05:43:44.758Z,99.99
2017-01-18T05:44:55.565Z,99.99
2017-01-18T05:46:06.372Z,99.99
2017-01-18T05:47:17.171Z,99.99
2017-01-18T05:48:27.960Z,99.99
2017-01-18T05:49:39.102Z,99.99
2017-01-18T05:50:49.896Z,99.99
2017-01-18T05:52:00.692Z,99.99
2017-01-18T05:53:25.962Z,99.99
2017-01-18T05:54:51.433Z,99.99
2017-01-18T05:56:02.238Z,99.99
2017-01-18T05:57:27.514Z,99.99
2017-01-18T05:58:38.315Z,99.99
2017-01-18T05:59:49.119Z,99.99
2017-01-18T06:01:00.171Z,99.99
2017-01-18T06:02:25.450Z,99.99
2017-01-18T06:03:36.254Z,99.99
2017-01-18T06:04:47.060Z,99.99
2017-01-18T06:06:12.335Z,99.99
2017-01-18T06:07:37.608Z,99.99
2017-01-18T06:08:48.409Z,99.99
2017-01-18T06:09:59.211Z,99.99
2017-01-18T06:11:10.211Z,99.99
2017-01-18T06:12:21.018Z,99.99
2017-01-18T06:13:32.428Z,99.99
2017-01-18T06:14:43.229Z,99.99
2017-01-18T06:15:54.041Z,99.99
2017-01-18T06:17:04.848Z,99.99
2017-01-18T06:18:15.651Z,99.99
2017-01-18T06:19:26.459Z,99.99
2017-01-18T06:20:37.291Z,99.99
2017-01-18T06:21:48.091Z,99.99
2017-01-18T06:22:58.892Z,99.99
2017-01-18T06:24:09.687Z,99.99
2017-01-18T06:25:20.480Z,99.99
2017-01-18T06:26:31.311Z,99.99
2017-01-18T06:27:42.118Z,99.99
2017-01-18T06:28:52.913Z,99.99
2017-01-18T06:30:18.185Z,99.99
2017-01-18T06:31:28.987Z,99.99
2017-01-18T06:32:39.790Z,99.99
2017-01-18T06:33:50.845Z,99.99
2017-01-18T06:36:26.908Z,99.99
2017-01-18T06:37:37.746Z,99.99
2017-01-18T06:38:48.552Z,99.99
2017-01-18T06:39:59.363Z,99.99
2017-01-18T06:41:10.171Z,99.99
2017-01-18T06:42:21.004Z,99.99
2017-01-18T06:43:31.814Z,99.99
2017-01-18T06:44:42.871Z,99.99
2017-01-18T06:45:53.685Z,99.99
2017-01-18T06:47:04.497Z,99.99
2017-01-18T06:48:15.301Z,99.99
2017-01-18T06:49:26.108Z,99.99
2017-01-18T06:50:36.953Z,99.99
2017-01-18T06:51:47.788Z,99.99
2017-01-18T06:52:58.594Z,99.99
2017-01-18T06:54:10.011Z,99.99
2017-01-18T06:55:20.821Z,99.99
2017-01-18T06:56:31.978Z,99.99
2017-01-18T06:57:42.787Z,99.99
2017-01-18T06:58:53.591Z,99.99
2017-01-18T07:00:04.399Z,99.99
2017-01-18T07:01:15.208Z,99.99
2017-01-18T07:02:26.046Z,99.99
2017-01-18T07:03:36.881Z,99.99
2017-01-18T07:04:47.698Z,99.99
2017-01-18T07:05:58.505Z,99.99
2017-01-18T07:07:09.311Z,99.99
2017-01-18T07:08:20.366Z,99.99
2017-01-18T07:09:45.643Z,99.99
2017-01-18T07:10:56.447Z,99.99
2017-01-18T07:12:07.255Z,99.99
2017-01-18T07:13:18.068Z,99.99
2017-01-18T07:14:29.227Z,99.99
2017-01-18T07:15:40.030Z,99.99
2017-01-18T07:16:50.837Z,99.99
2017-01-18T07:18:01.647Z,99.99
2017-01-18T07:19:12.831Z,99.99
2017-01-18T07:20:23.638Z,99.99
2017-01-18T07:21:48.918Z,99.99
2017-01-18T07:22:59.722Z,99.99
2017-01-18T07:24:10.780Z,99.99
2017-01-18T07:25:21.593Z,99.99
2017-01-18T07:26:32.398Z,99.99
2017-01-18T07:27:43.204Z,99.99
2017-01-18T07:28:54.010Z,99.99
2017-01-18T07:30:05.065Z,99.99
2017-01-18T07:31:15.874Z,99.99
2017-01-18T07:32:26.706Z,99.99
2017-01-18T07:33:37.513Z,99.99
2017-01-18T07:34:48.317Z,99.99
2017-01-18T07:35:59.120Z,99.99
2017-01-18T07:37:09.934Z,99.99
2017-01-18T07:38:20.740Z,99.99
2017-01-18T07:39:31.542Z,99.99
2017-01-18T07:40:42.354Z,99.99
2017-01-18T07:41:53.543Z,99.99
2017-01-18T07:43:04.374Z,99.99
2017-01-18T07:44:15.183Z,99.99
2017-01-18T07:45:25.988Z,99.99
2017-01-18T07:46:36.821Z,99.99
2017-01-18T07:47:47.632Z,99.99
2017-01-18T07:48:58.443Z,99.99
2017-01-18T07:50:09.856Z,99.99
2017-01-18T07:51:20.665Z,99.99
2017-01-18T07:52:31.496Z,99.99
2017-01-18T07:53:42.659Z,99.99
2017-01-18T07:54:53.463Z,99.99
2017-01-18T07:56:04.272Z,99.99
2017-01-18T07:57:15.082Z,99.99
2017-01-18T07:58:25.892Z,99.99
2017-01-18T07:59:51.417Z,99.99
2017-01-18T08:01:02.225Z,99.99
2017-01-18T08:02:13.031Z,99.99
2017-01-18T08:03:23.838Z,99.99
2017-01-18T08:04:34.993Z,99.99
2017-01-18T08:06:00.268Z,99.99
2017-01-18T08:07:11.077Z,99.99
2017-01-18T08:08:21.884Z,99.99
2017-01-18T08:09:32.705Z,99.99
2017-01-18T08:10:43.762Z,99.99
2017-01-18T08:11:54.570Z,99.99
2017-01-18T08:13:05.376Z,99.99
2017-01-18T08:14:16.181Z,99.99
2017-01-18T08:15:26.985Z,99.99
2017-01-18T08:16:37.795Z,99.99
2017-01-18T08:17:48.602Z,99.99
2017-01-18T08:18:59.427Z,99.99
2017-01-18T08:20:10.234Z,99.99
2017-01-18T08:22:46.632Z,99.99
2017-01-18T08:23:57.437Z,99.99
2017-01-18T08:25:37.183Z,99.99
2017-01-18T08:26:47.993Z,99.99
2017-01-18T08:27:58.803Z,99.99
2017-01-18T08:29:09.621Z,99.99
2017-01-18T08:30:20.432Z,99.99
2017-01-18T08:31:31.238Z,99.99
2017-01-18T08:32:42.247Z,99.99
2017-01-18T08:33:53.052Z,99.99
2017-01-18T08:35:03.858Z,99.99
2017-01-18T08:36:29.134Z,99.99
2017-01-18T08:37:39.941Z,99.99
2017-01-18T08:38:50.745Z,99.99
2017-01-18T08:40:01.552Z,99.99
2017-01-18T08:41:12.359Z,99.99
2017-01-18T08:42:23.164Z,99.99
2017-01-18T08:43:34.176Z,99.99
2017-01-18T08:44:44.985Z,99.99
2017-01-18T08:45:55.791Z,99.99
2017-01-18T08:47:06.596Z,99.99
2017-01-18T08:48:18.013Z,99.99
2017-01-18T08:49:29.175Z,99.99
2017-01-18T08:50:39.982Z,99.99
2017-01-18T08:51:50.793Z,99.99
2017-01-18T08:53:01.599Z,99.99
2017-01-18T08:54:12.408Z,99.99
2017-01-18T08:55:37.684Z,99.99
2017-01-18T08:56:48.498Z,99.99
2017-01-18T08:57:59.304Z,99.99
2017-01-18T08:59:10.110Z,99.99
2017-01-18T09:00:20.934Z,99.99
2017-01-18T09:01:31.741Z,99.99
2017-01-18T09:02:42.548Z,99.99
2017-01-18T09:03:53.355Z,99.99
2017-01-18T09:05:04.172Z,99.99
2017-01-18T09:06:14.985Z,99.99
2017-01-18T09:07:25.800Z,99.99
2017-01-18T09:08:36.605Z,99.99
2017-01-18T09:10:01.882Z,99.99
2017-01-18T09:11:12.691Z,99.99
2017-01-18T09:12:23.851Z,99.99
2017-01-18T09:13:34.666Z,99.99
2017-01-18T09:14:46.086Z,99.99
2017-01-18T09:15:56.897Z,99.99
2017-01-18T09:17:07.907Z,99.99
2017-01-18T09:18:18.716Z,99.99
2017-01-18T09:19:29.520Z,99.99
2017-01-18T09:20:40.352Z,99.99
2017-01-18T09:21:51.157Z,99.99
2017-01-18T09:23:01.964Z,99.99
2017-01-18T09:24:12.771Z,99.99
2017-01-18T09:25:23.577Z,99.99
2017-01-18T09:26:34.384Z,99.99
2017-01-18T09:27:45.195Z,99.99
2017-01-18T09:28:56.030Z,99.99
2017-01-18T09:30:06.841Z,99.99
2017-01-18T09:31:17.646Z,99.99
2017-01-18T09:32:28.456Z,99.99
2017-01-18T09:33:39.267Z,99.99
2017-01-18T09:36:15.350Z,99.99
2017-01-18T09:37:26.167Z,99.99
2017-01-18T09:38:36.970Z,99.99
2017-01-18T09:39:47.779Z,99.99
2017-01-18T09:40:58.616Z,99.99
2017-01-18T09:42:09.424Z,99.99
2017-01-18T09:43:20.228Z,99.99
2017-01-18T09:44:31.037Z,99.99
2017-01-18T09:45:42.193Z,99.99
2017-01-18T09:47:07.471Z,99.99
2017-01-18T09:48:18.279Z,99.99
2017-01-18T09:49:29.084Z,99.99
2017-01-18T09:53:45.267Z,99.99
2017-01-18T09:54:56.076Z,99.99
2017-01-18T09:56:07.082Z,99.99
2017-01-18T09:57:17.890Z,99.99
2017-01-18T09:58:28.699Z,99.99
2017-01-18T09:59:54.009Z,99.99
2017-01-18T10:01:04.834Z,99.99
2017-01-18T10:02:30.112Z,99.99
2017-01-18T10:03:40.943Z,99.99
2017-01-18T10:04:51.754Z,99.99
2017-01-18T10:06:02.569Z,99.99
2017-01-18T10:07:13.369Z,99.99
2017-01-18T10:08:24.158Z,99.99
2017-01-18T10:09:34.948Z,99.99
2017-01-18T10:10:45.733Z,99.99
2017-01-18T10:11:56.873Z,99.99
2017-01-18T10:13:07.661Z,99.99
2017-01-18T10:14:32.920Z,99.99
2017-01-18T10:15:43.713Z,99.99
2017-01-18T10:16:54.885Z,99.99
2017-01-18T10:18:05.704Z,99.99
2017-01-18T10:19:16.573Z,99.99
2017-01-18T10:20:27.373Z,99.99
2017-01-18T10:21:38.263Z,99.99
2017-01-18T10:22:49.465Z,99.99
2017-01-18T10:24:00.470Z,99.99
2017-01-18T10:25:25.857Z,99.99
2017-01-18T10:26:51.228Z,99.99
2017-01-18T10:28:02.062Z,99.99
2017-01-18T10:29:12.882Z,99.99
2017-01-18T10:30:23.739Z,99.99
2017-01-18T10:31:34.605Z,99.99
2017-01-18T10:32:45.520Z,99.99
2017-01-18T10:33:56.389Z,99.99
2017-01-18T10:35:21.650Z,99.99
2017-01-18T10:36:32.511Z,99.99
2017-01-18T10:37:43.330Z,99.99
2017-01-18T10:38:54.118Z,99.99
2017-01-18T10:40:05.070Z,99.99
2017-01-18T10:41:15.914Z,99.99
2017-01-18T10:42:26.712Z,99.99
2017-01-18T10:43:37.513Z,99.99
2017-01-18T10:44:48.556Z,99.99
2017-01-18T10:45:59.357Z,99.99
2017-01-18T10:47:24.636Z,99.99
2017-01-18T10:48:35.439Z,99.99
2017-01-18T10:49:46.235Z,99.99
2017-01-18T10:50:57.026Z,99.99
2017-01-18T10:52:07.814Z,99.99
2017-01-18T10:53:18.607Z,99.99
2017-01-18T10:54:29.403Z,99.99
2017-01-18T10:55:40.194Z,99.99
2017-01-18T10:56:50.981Z,99.99
2017-01-18T10:58:01.767Z,99.99
2017-01-18T10:59:12.556Z,99.99
2017-01-18T11:00:23.342Z,99.99
2017-01-18T11:01:34.381Z,99.99
2017-01-18T11:02:45.171Z,99.99
2017-01-18T11:03:55.964Z,99.99
2017-01-18T11:05:06.750Z,99.99
2017-01-18T11:06:17.537Z,99.99
2017-01-18T11:07:28.788Z,99.99
2017-01-18T11:08:39.593Z,99.99
2017-01-18T11:09:50.387Z,99.99
2017-01-18T11:11:01.184Z,99.99
2017-01-18T11:12:11.973Z,99.99
2017-01-18T11:13:23.020Z,99.99
2017-01-18T11:14:33.811Z,99.99
2017-01-18T11:15:59.069Z,99.99
2017-01-18T11:17:09.852Z,99.99
2017-01-18T11:18:20.635Z,99.99
2017-01-18T11:20:56.681Z,99.99
2017-01-18T11:22:07.465Z,99.99
2017-01-18T11:23:18.859Z,99.99
2017-01-18T11:24:29.645Z,99.99
2017-01-18T11:25:40.456Z,99.99
2017-01-18T11:26:51.244Z,99.99
2017-01-18T11:28:02.029Z,99.99
2017-01-18T11:29:13.064Z,99.99
2017-01-18T11:30:23.852Z,99.99
2017-01-18T11:31:34.639Z,99.99
2017-01-18T11:32:45.426Z,99.99
2017-01-18T11:33:56.211Z,99.99
2017-01-18T11:35:07.351Z,99.99
2017-01-18T11:36:18.143Z,99.99
2017-01-18T11:37:28.930Z,99.99
2017-01-18T11:38:39.720Z,99.99
2017-01-18T11:39:50.544Z,99.99
2017-01-18T11:41:01.594Z,99.99
2017-01-18T11:42:12.417Z,99.99
2017-01-18T11:43:23.218Z,99.99
2017-01-18T11:44:34.011Z,99.99
2017-01-18T11:45:44.799Z,99.99
2017-01-18T11:46:55.841Z,99.99
2017-01-18T11:48:06.626Z,99.99
2017-01-18T11:49:17.419Z,99.99
2017-01-18T11:50:28.208Z,99.99
2017-01-18T11:51:39.012Z,99.99
2017-01-18T11:52:51.810Z,99.99
2017-01-18T11:54:02.599Z,99.99
2017-01-18T11:55:13.387Z,99.99
2017-01-18T11:56:38.646Z,99.99
2017-01-18T11:57:49.427Z,99.99
2017-01-18T11:59:00.211Z,99.99
2017-01-18T12:00:10.993Z,99.99
2017-01-18T12:04:12.299Z,99.99
2017-01-18T12:05:23.106Z,99.99
2017-01-18T12:06:33.894Z,99.99
2017-01-18T12:07:44.677Z,99.99
2017-01-18T12:08:55.460Z,99.99
2017-01-18T12:10:06.247Z,99.99
2017-01-18T12:11:17.032Z,99.99
2017-01-18T12:12:27.816Z,99.99
2017-01-18T12:13:38.602Z,99.99
2017-01-18T12:14:49.399Z,99.99
2017-01-18T12:16:00.190Z,99.99
2017-01-18T12:17:11.002Z,99.99
2017-01-18T12:18:50.743Z,99.99
2017-01-18T12:20:01.531Z,99.99
2017-01-18T12:21:12.324Z,99.99
2017-01-18T12:22:23.154Z,99.99
2017-01-18T12:23:33.959Z,99.99
2017-01-18T12:24:44.755Z,99.99
2017-01-18T12:25:55.793Z,99.99
2017-01-18T12:27:07.189Z,99.99
2017-01-18T12:28:17.980Z,99.99
2017-01-18T12:29:28.770Z,99.99
2017-01-18T12:30:39.562Z,99.99
2017-01-18T12:31:50.687Z,99.99
2017-01-18T12:33:01.686Z,99.99
2017-01-18T12:34:12.645Z,99.99
2017-01-18T12:35:23.462Z,99.99
2017-01-18T12:36:34.260Z,99.99
2017-01-18T12:37:45.068Z,99.99
2017-01-18T12:38:56.029Z,99.99
2017-01-18T12:40:07.209Z,99.99
2017-01-18T12:41:18.184Z,99.99
2017-01-18T12:42:28.984Z,99.99
2017-01-18T12:43:54.253Z,99.99
2017-01-18T12:45:05.656Z,99.99
2017-01-18T12:46:45.394Z,99.99
2017-01-18T12:47:56.190Z,99.99
2017-01-18T12:49:06.975Z,99.99
2017-01-18T12:50:17.762Z,99.99
2017-01-18T12:51:28.556Z,99.99
2017-01-18T12:52:39.343Z,99.99
2017-01-18T12:53:50.169Z,99.99
2017-01-18T12:55:00.958Z,99.99
2017-01-18T12:56:12.411Z,99.99
2017-01-18T12:57:23.208Z,99.99
2017-01-18T12:58:33.991Z,99.99
2017-01-18T12:59:44.778Z,99.99
2017-01-18T13:00:55.570Z,99.99
2017-01-18T13:02:06.370Z,99.99
2017-01-18T13:03:17.193Z,99.99
2017-01-18T13:04:28.062Z,99.99
2017-01-18T13:05:38.874Z,99.99
2017-01-18T13:06:49.712Z,99.99
2017-01-18T13:08:00.525Z,99.99
2017-01-18T13:09:11.315Z,99.99
2017-01-18T13:10:22.102Z,99.99
2017-01-18T13:12:58.759Z,99.99
2017-01-18T13:14:09.550Z,99.99
2017-01-18T13:15:34.817Z,99.99
2017-01-18T13:16:45.686Z,99.99
2017-01-18T13:17:56.772Z,99.99
2017-01-18T13:19:07.559Z,99.99
2017-01-18T13:20:32.817Z,99.99
2017-01-18T13:21:44.209Z,99.99
2017-01-18T13:23:09.723Z,99.99
2017-01-18T13:24:20.512Z,99.99
2017-01-18T13:25:31.300Z,99.99
2017-01-18T13:26:42.087Z,99.99
2017-01-18T13:27:52.885Z,99.99
2017-01-18T13:29:03.681Z,99.99
2017-01-18T13:30:14.485Z,99.99
2017-01-18T13:31:25.273Z,99.99
2017-01-18T13:32:36.059Z,99.99
2017-01-18T13:33:46.847Z,99.99
2017-01-18T13:34:57.634Z,99.99
2017-01-18T13:36:08.420Z,99.99
2017-01-18T13:37:33.681Z,99.99
2017-01-18T13:38:58.944Z,99.99
2017-01-18T13:40:24.203Z,99.99
2017-01-18T13:41:34.993Z,99.99
2017-01-18T13:42:45.778Z,99.99
2017-01-18T13:43:56.570Z,99.99
2017-01-18T13:45:07.365Z,99.99
2017-01-18T13:46:18.150Z,99.99
2017-01-18T13:47:28.937Z,99.99
2017-01-18T13:48:39.725Z,99.99
2017-01-18T13:51:15.784Z,99.99
2017-01-18T13:52:26.572Z,99.99
2017-01-18T13:53:37.376Z,99.99
2017-01-18T13:54:48.774Z,99.99
2017-01-18T13:55:59.560Z,99.99
2017-01-18T13:57:10.370Z,99.99
2017-01-18T13:58:21.192Z,99.99
2017-01-18T13:59:31.980Z,99.99
2017-01-18T14:00:43.017Z,99.99
2017-01-18T14:01:53.839Z,99.99
2017-01-18T14:03:04.624Z,99.99
2017-01-18T14:04:15.430Z,99.99
2017-01-18T14:05:26.220Z,99.99
2017-01-18T14:06:37.959Z,99.99
2017-01-18T14:07:48.752Z,99.99
2017-01-18T14:08:59.555Z,99.99
2017-01-18T14:10:10.347Z,99.99
2017-01-18T14:11:21.134Z,99.99
2017-01-18T14:12:47.003Z,99.99
2017-01-18T14:13:57.792Z,99.99
2017-01-18T14:15:08.587Z,99.99
2017-01-18T14:16:19.379Z,99.99
2017-01-18T14:17:30.420Z,99.99
2017-01-18T14:18:41.208Z,99.99
2017-01-18T14:19:51.991Z,99.99
2017-01-18T14:21:02.774Z,99.99
2017-01-18T14:22:13.613Z,99.99
2017-01-18T14:23:25.269Z,99.99
2017-01-18T14:24:36.060Z,99.99
2017-01-18T14:25:46.852Z,99.99
2017-01-18T14:26:57.640Z,99.99
2017-01-18T14:28:08.427Z,99.99
2017-01-18T14:29:19.214Z,99.99
2017-01-18T14:30:30.002Z,99.99
2017-01-18T14:31:40.788Z,99.99
2017-01-18T14:32:52.186Z,99.99
2017-01-18T14:34:02.968Z,99.99
2017-01-18T14:35:14.359Z,99.99
2017-01-18T14:36:25.148Z,99.99
2017-01-18T14:37:35.937Z,99.99
2017-01-18T14:38:46.734Z,99.99
2017-01-18T14:39:57.532Z,99.99
2017-01-18T14:41:08.529Z,99.99
2017-01-18T14:42:19.325Z,99.99
2017-01-18T14:43:30.112Z,99.99
2017-01-18T14:44:40.900Z,99.99
2017-01-18T14:45:51.686Z,99.99
2017-01-18T14:47:02.488Z,99.99
2017-01-18T14:48:13.279Z,99.99
2017-01-18T14:49:24.067Z,99.99
2017-01-18T14:50:34.852Z,99.99
2017-01-18T14:51:45.638Z,99.99
2017-01-18T14:52:56.620Z,99.99
2017-01-18T14:54:07.438Z,99.99
2017-01-18T14:55:18.222Z,99.99
2017-01-18T14:56:29.011Z,99.99
2017-01-18T14:57:39.804Z,99.99
2017-01-18T14:58:50.851Z,99.99
2017-01-18T15:00:01.637Z,99.69
2017-01-18T15:01:12.448Z,99.89
2017-01-18T15:02:23.234Z,98.83
2017-01-18T15:03:34.030Z,98.44
2017-01-18T15:04:44.816Z,98.88
2017-01-18T15:05:55.603Z,99.79
2017-01-18T15:07:06.389Z,98.39
2017-01-18T15:08:17.172Z,99.51
2017-01-18T15:09:27.959Z,98.73
2017-01-18T15:10:39.101Z,98.25
2017-01-18T15:11:49.889Z,97.96
2017-01-18T15:13:00.684Z,96.7
2017-01-18T15:14:11.477Z,97.81
2017-01-18T15:15:22.301Z,98
2017-01-18T15:16:33.339Z,98.15
2017-01-18T15:17:44.141Z,99.11
2017-01-18T15:18:54.937Z,97.38
2017-01-18T15:20:05.741Z,98.25
2017-01-18T15:21:17.131Z,96.31
2017-01-18T15:22:42.394Z,96.99
2017-01-18T15:23:53.225Z,96.89
2017-01-18T15:25:04.013Z,96.07
2017-01-18T15:26:14.810Z,96.12
2017-01-18T15:27:25.595Z,96.41
2017-01-18T15:28:36.733Z,96.41
2017-01-18T15:29:47.528Z,96.6
2017-01-18T15:30:58.317Z,97.47
2017-01-18T15:32:09.111Z,97.23
2017-01-18T15:33:19.911Z,96.7
2017-01-18T15:34:30.707Z,97.09
2017-01-18T15:35:41.506Z,97.47
2017-01-18T15:36:52.304Z,97.86
2017-01-18T15:38:03.107Z,97.09
2017-01-18T15:39:13.911Z,97.57
2017-01-18T15:40:24.704Z,96.99
2017-01-18T15:41:35.511Z,98.05
2017-01-18T15:42:46.314Z,97.47
2017-01-18T15:43:57.101Z,96.7
2017-01-18T15:45:08.244Z,97.38
2017-01-18T15:46:19.030Z,96.89
2017-01-18T15:47:29.859Z,95.44
2017-01-18T15:48:41.260Z,95.54
2017-01-18T15:49:52.074Z,95.39